Sherman, Connecticut
Current Conditions -  °F | °C
As of 9:53 AM on Saturday 25 Oct 2014 (Local Time) from KDXR Reporting Station
Clear Clear  
Wind Chill: 50°   Ceiling: Unl
Heat Index: 50°   Visibility: 10mi
Dew Point: 38°   Wind: 6mph
Humidity: 63%   Direction: 220°SW
Pressure: 29.83"   Gusts: NA
Location:  41.57°N, 73.49°W
Report Text: KDXR 251353Z 22005KT 10SM CLR 10/03 A2983 RMK AO2 SLP103 T01000033
Loading
Personal Weather Stations






























Interactive Weather Map
Tropical Storm Tracking
New forecast layout! Learn more

10-Day Weather Forecast

Advertisements
Track Severe Weather on mobile